createdAt,value
2019-05-29T00:03:22.460Z,13.10
2019-05-29T00:23:34.772Z,13.00
2019-05-29T00:33:41.938Z,13.10
2019-05-29T00:43:47.613Z,13.10
2019-05-29T00:53:53.178Z,13.00
2019-05-29T01:03:58.700Z,13.10
2019-05-29T01:14:04.271Z,13.20
2019-05-29T01:24:09.772Z,13.20
2019-05-29T01:34:15.646Z,13.00
2019-05-29T01:54:27.983Z,13.00
2019-05-29T02:14:39.710Z,12.90
2019-05-29T02:24:45.213Z,12.90
2019-05-29T02:34:50.690Z,12.70
2019-05-29T02:44:57.418Z,12.90
2019-05-29T02:55:02.923Z,13.00
2019-05-29T03:05:09.371Z,13.00
2019-05-29T03:15:14.943Z,12.90
2019-05-29T03:25:20.482Z,12.90
2019-05-29T03:35:28.205Z,13.00
2019-05-29T03:45:35.686Z,12.90
2019-05-29T03:55:40.851Z,12.50
2019-05-29T04:05:46.327Z,12.70
2019-05-29T04:15:53.542Z,12.70
2019-05-29T04:26:02.335Z,12.50
2019-05-29T04:36:08.026Z,12.50
2019-05-29T04:46:13.581Z,12.40
2019-05-29T04:56:19.208Z,12.40
2019-05-29T05:06:25.015Z,12.50
2019-05-29T05:16:31.701Z,12.50
2019-05-29T05:26:38.411Z,12.30
2019-05-29T05:36:44.095Z,12.40
2019-05-29T05:46:50.828Z,12.40
2019-05-29T05:56:57.320Z,12.40
2019-05-29T06:07:02.893Z,12.10
2019-05-29T06:17:08.522Z,12.00
2019-05-29T06:27:14.026Z,12.40
2019-05-29T06:37:19.652Z,12.70
2019-05-29T06:47:25.418Z,12.70
2019-05-29T06:57:30.977Z,12.90
2019-05-29T07:07:37.819Z,12.70
2019-05-29T07:17:45.029Z,13.20
2019-05-29T07:27:55.327Z,13.40
2019-05-29T07:38:01.290Z,13.50
2019-05-29T07:48:06.939Z,13.90
2019-05-29T07:58:12.505Z,14.20
2019-05-29T08:08:18.064Z,14.20
2019-05-29T08:18:23.637Z,14.10
2019-05-29T08:28:29.221Z,14.40
2019-05-29T08:38:34.853Z,14.90
2019-05-29T08:48:41.663Z,15.50
2019-05-29T08:58:48.395Z,16.40
2019-05-29T09:08:54.990Z,15.40
2019-05-29T09:19:00.911Z,15.40
2019-05-29T09:29:06.461Z,15.20
2019-05-29T09:39:12.034Z,15.30
2019-05-29T09:49:18.401Z,15.00
2019-05-29T09:59:24.079Z,15.00
2019-05-29T10:09:29.620Z,15.00
2019-05-29T10:19:35.133Z,15.00
2019-05-29T10:29:40.732Z,15.10
2019-05-29T10:49:53.860Z,14.40
2019-05-29T10:59:59.576Z,14.30
2019-05-29T11:20:14.292Z,14.20
2019-05-29T11:30:20.092Z,14.00
2019-05-29T11:40:25.745Z,14.10
2019-05-29T11:50:31.333Z,14.70
2019-05-29T12:00:38.294Z,14.70
2019-05-29T12:10:43.981Z,14.50
2019-05-29T12:20:49.493Z,14.50
2019-05-29T12:30:55.240Z,14.50
2019-05-29T12:41:01.774Z,14.40
2019-05-29T12:51:07.493Z,14.70
2019-05-29T13:01:14.431Z,14.80
2019-05-29T13:11:19.972Z,15.20
2019-05-29T13:21:25.424Z,15.50
2019-05-29T13:31:30.974Z,15.80
2019-05-29T13:41:36.590Z,15.60
2019-05-29T13:51:42.094Z,15.80
2019-05-29T14:01:48.786Z,16.30
2019-05-29T14:11:54.813Z,16.60
2019-05-29T14:22:01.127Z,15.70
2019-05-29T14:32:07.388Z,15.50
2019-05-29T14:42:13.372Z,15.80
2019-05-29T14:52:20.461Z,15.90
2019-05-29T15:02:26.123Z,16.00
2019-05-29T15:12:31.653Z,16.30
2019-05-29T15:22:37.154Z,16.00
2019-05-29T15:32:42.809Z,16.80
2019-05-29T15:42:49.459Z,16.50
2019-05-29T15:52:54.946Z,17.00
2019-05-29T16:03:00.452Z,17.40
2019-05-29T16:13:06.036Z,16.90
2019-05-29T16:23:13.927Z,17.80
2019-05-29T16:43:26.014Z,16.60
2019-05-29T16:53:32.539Z,16.60
2019-05-29T17:03:38.409Z,16.60
2019-05-29T17:13:44.131Z,16.20
2019-05-29T17:23:49.733Z,16.00
2019-05-29T17:33:55.453Z,16.20
2019-05-29T17:44:01.570Z,16.30
2019-05-29T17:54:08.613Z,16.20
2019-05-29T18:04:14.473Z,15.90
2019-05-29T18:14:21.396Z,15.80
2019-05-29T18:24:28.068Z,15.60
2019-05-29T18:34:33.981Z,15.40
2019-05-29T18:44:39.698Z,15.20
2019-05-29T18:54:45.511Z,15.10
2019-05-29T19:04:51.177Z,14.90
2019-05-29T19:14:56.987Z,14.80
2019-05-29T19:25:02.854Z,14.60
2019-05-29T19:35:10.832Z,14.50
2019-05-29T20:05:26.814Z,14.10
2019-05-29T20:15:32.533Z,14.10
2019-05-29T20:25:39.048Z,13.90
2019-05-29T20:35:44.652Z,13.80
2019-05-29T20:45:50.255Z,14.30
2019-05-29T20:55:55.779Z,13.50
2019-05-29T21:16:06.415Z,13.10
2019-05-29T21:26:12.017Z,13.10
2019-05-29T21:36:18.575Z,13.10
2019-05-29T21:46:24.132Z,13.10
2019-05-29T21:56:29.711Z,13.20
2019-05-29T22:06:35.252Z,13.20
2019-05-29T22:16:40.773Z,13.10
2019-05-29T22:26:46.452Z,13.10
2019-05-29T22:47:01.931Z,13.00
2019-05-29T22:57:07.619Z,13.00
2019-05-29T23:17:20.191Z,12.80
2019-05-29T23:27:25.663Z,12.90
2019-05-29T23:47:36.885Z,12.70
2019-05-29T23:57:42.414Z,12.70
